createdAt,value
2023-01-05T00:01:41.764Z,99229.47
2023-01-05T00:04:08.990Z,99212.28
2023-01-05T00:06:37.588Z,99218.28
2023-01-05T00:09:05.772Z,99203.72
2023-01-05T00:11:51.811Z,99208.88
2023-01-05T00:14:49.365Z,99208.03
2023-01-05T00:17:38.201Z,99208.94
2023-01-05T00:20:26.183Z,99190.13
2023-01-05T00:22:54.674Z,99193.53
2023-01-05T00:25:28.249Z,99202.94
2023-01-05T00:27:56.749Z,99184.13
2023-01-05T00:30:31.616Z,99185.81
2023-01-05T00:32:59.137Z,99176.41
2023-01-05T00:35:27.291Z,99183.31
2023-01-05T00:37:55.063Z,99183.31
2023-01-05T00:40:22.557Z,99182.47
2023-01-05T00:42:49.639Z,99195.31
2023-01-05T00:45:19.013Z,99173.84
2023-01-05T00:47:46.147Z,99174.72
2023-01-05T00:50:16.234Z,99149.16
2023-01-05T00:52:44.093Z,99167.88
2023-01-05T00:55:11.487Z,99157.56
2023-01-05T00:57:38.612Z,99158.50
2023-01-05T01:00:08.251Z,99155.88
2023-01-05T01:02:35.409Z,99149.06
2023-01-05T01:05:02.712Z,99155.94
2023-01-05T01:07:30.885Z,99149.06
2023-01-05T01:09:57.947Z,99151.63
2023-01-05T01:12:25.070Z,99146.47
2023-01-05T01:14:52.310Z,99147.31
2023-01-05T01:17:19.578Z,99148.22
2023-01-05T01:19:46.998Z,99158.44
2023-01-05T01:22:15.032Z,99154.13
2023-01-05T01:24:42.376Z,99149.00
2023-01-05T01:27:09.662Z,99128.53
2023-01-05T01:29:36.796Z,99143.78
2023-01-05T01:32:04.140Z,99138.59
2023-01-05T01:34:31.470Z,99140.28
2023-01-05T01:37:00.096Z,99133.38
2023-01-05T01:39:32.380Z,99129.97
2023-01-05T01:42:04.456Z,99126.50
2023-01-05T01:44:52.992Z,99115.31
2023-01-05T01:48:00.943Z,99121.31
2023-01-05T01:50:28.072Z,99111.84
2023-01-05T01:53:00.424Z,99108.44
2023-01-05T01:55:29.723Z,99110.13
2023-01-05T01:57:58.361Z,99111.00
2023-01-05T02:00:25.508Z,99111.84
2023-01-05T02:02:55.394Z,99092.16
2023-01-05T02:05:29.737Z,99102.38
2023-01-05T02:07:57.102Z,99095.56
2023-01-05T02:10:44.026Z,99094.72
2023-01-05T02:13:31.388Z,99085.31
2023-01-05T02:16:10.074Z,99093.94
2023-01-05T02:18:57.312Z,99088.84
2023-01-05T02:21:56.997Z,99103.47
2023-01-05T02:25:11.937Z,99105.31
2023-01-05T02:27:59.362Z,99095.91
2023-01-05T02:30:47.933Z,99106.25
2023-01-05T02:33:33.204Z,99109.72
2023-01-05T02:36:38.340Z,99116.56
2023-01-05T02:39:21.626Z,99108.88
2023-01-05T02:42:01.490Z,99108.81
2023-01-05T02:44:31.329Z,99114.03
2023-01-05T02:47:08.454Z,99112.28
2023-01-05T02:49:41.293Z,99116.56
2023-01-05T02:52:12.259Z,99114.84
2023-01-05T02:54:55.609Z,99112.28
2023-01-05T02:57:50.005Z,99106.34
2023-01-05T03:00:41.494Z,99123.47
2023-01-05T03:03:19.557Z,99120.94
2023-01-05T03:05:57.919Z,99116.66
2023-01-05T03:08:32.655Z,99120.13
2023-01-05T03:11:28.517Z,99128.69
2023-01-05T03:14:12.896Z,99119.28
2023-01-05T03:16:40.366Z,99124.38
2023-01-05T03:19:33.935Z,99120.13
2023-01-05T03:22:24.543Z,99126.97
2023-01-05T03:25:11.227Z,99121.81
2023-01-05T03:28:00.557Z,99123.53
2023-01-05T03:30:58.281Z,99109.03
2023-01-05T03:33:54.665Z,99115.88
2023-01-05T03:36:24.884Z,99114.13
2023-01-05T03:38:54.582Z,99120.13
2023-01-05T03:41:24.040Z,99104.69
2023-01-05T03:43:51.755Z,99109.84
2023-01-05T03:46:22.364Z,99108.16
2023-01-05T03:48:50.977Z,99109.88
2023-01-05T03:51:20.206Z,99114.97
2023-01-05T03:53:47.622Z,99111.53
2023-01-05T03:56:14.761Z,99116.72
2023-01-05T03:58:41.963Z,99111.56
2023-01-05T04:01:09.368Z,99113.28
2023-01-05T04:03:39.066Z,99116.72
2023-01-05T04:06:07.853Z,99115.88
2023-01-05T04:08:36.985Z,99111.56
2023-01-05T04:11:15.238Z,99106.44
2023-01-05T04:13:46.862Z,99109.88
2023-01-05T04:16:14.724Z,99101.28
2023-01-05T04:18:42.996Z,99101.34
2023-01-05T04:21:10.418Z,99106.44
2023-01-05T04:23:38.810Z,99098.81
2023-01-05T04:26:06.286Z,99099.59
2023-01-05T04:28:34.066Z,99098.75
2023-01-05T04:31:01.922Z,99101.34
2023-01-05T04:33:30.950Z,99099.66
2023-01-05T04:35:58.241Z,99103.91
2023-01-05T04:38:28.301Z,99103.06
2023-01-05T04:40:55.839Z,99103.06
2023-01-05T04:43:25.070Z,99104.75
2023-01-05T04:45:52.220Z,99101.28
2023-01-05T04:48:20.404Z,99103.00
2023-01-05T04:50:54.135Z,99103.00
2023-01-05T04:53:25.999Z,99112.41
2023-01-05T04:55:53.371Z,99112.41
2023-01-05T04:58:22.293Z,99109.81
2023-01-05T05:00:50.996Z,99121.81
2023-01-05T05:03:18.274Z,99110.66
2023-01-05T05:05:45.707Z,99104.69
2023-01-05T05:08:14.951Z,99090.94
2023-01-05T05:10:42.079Z,99090.94
2023-01-05T05:13:09.255Z,99095.25
2023-01-05T05:15:36.526Z,99087.63
2023-01-05T05:18:09.114Z,99092.72
2023-01-05T05:20:42.691Z,99082.41
2023-01-05T05:23:11.274Z,99088.41
2023-01-05T05:25:38.302Z,99078.06
2023-01-05T05:28:05.721Z,99077.22
2023-01-05T05:30:32.973Z,99073.81
2023-01-05T05:33:00.161Z,99077.16
2023-01-05T05:35:27.271Z,99085.72
2023-01-05T05:37:56.630Z,99083.97
2023-01-05T05:40:24.521Z,99080.56
2023-01-05T05:42:51.547Z,99090.81
2023-01-05T05:45:18.750Z,99097.66
2023-01-05T05:47:45.852Z,99092.56
2023-01-05T05:50:13.018Z,99106.19
2023-01-05T05:52:40.041Z,99108.78
2023-01-05T05:55:08.005Z,99101.06
2023-01-05T05:57:35.304Z,99102.78
2023-01-05T06:00:02.814Z,99101.09
2023-01-05T06:02:40.263Z,99114.81
2023-01-05T06:05:07.942Z,99080.72
2023-01-05T06:07:35.084Z,99113.03
2023-01-05T06:10:02.300Z,99121.63
2023-01-05T06:12:29.614Z,99116.56
2023-01-05T06:14:56.707Z,99118.22
2023-01-05T06:17:23.834Z,99125.03
2023-01-05T06:19:50.953Z,99132.78
2023-01-05T06:22:18.013Z,99133.69
2023-01-05T06:24:45.061Z,99142.22
2023-01-05T06:27:12.447Z,99149.06
2023-01-05T06:29:39.517Z,99155.09
2023-01-05T06:32:06.544Z,99154.25
2023-01-05T06:34:33.796Z,99150.88
2023-01-05T06:37:02.573Z,99156.84
2023-01-05T06:39:29.833Z,99164.56
2023-01-05T06:41:56.915Z,99171.44
2023-01-05T06:44:24.031Z,99171.47
2023-01-05T06:46:51.171Z,99179.16
2023-01-05T06:49:18.620Z,99186.03
2023-01-05T06:51:45.713Z,99193.75
2023-01-05T06:54:13.019Z,99171.63
2023-01-05T06:56:40.173Z,99200.69
2023-01-05T06:59:07.416Z,99201.56
2023-01-05T07:01:34.478Z,99207.56
2023-01-05T07:04:01.885Z,99211.91
2023-01-05T07:06:29.393Z,99221.34
2023-01-05T07:08:56.495Z,99209.34
2023-01-05T07:11:23.708Z,99211.13
2023-01-05T07:13:53.472Z,99213.66
2023-01-05T07:16:20.660Z,99225.72
2023-01-05T07:18:47.755Z,99223.09
2023-01-05T07:21:14.882Z,99228.28
2023-01-05T07:23:42.037Z,99213.75
2023-01-05T07:26:09.787Z,99231.69
2023-01-05T07:28:38.113Z,99231.69
2023-01-05T07:31:07.742Z,99237.69
2023-01-05T07:33:40.089Z,99229.13
2023-01-05T07:36:08.135Z,99228.31
2023-01-05T07:38:35.275Z,99233.44
2023-01-05T07:41:02.868Z,99231.72
2023-01-05T07:43:30.039Z,99229.19
2023-01-05T07:45:58.875Z,99233.47
2023-01-05T07:48:26.052Z,99242.97
2023-01-05T07:50:53.604Z,99243.81
2023-01-05T07:53:20.756Z,99242.13
2023-01-05T07:55:57.279Z,99251.63
2023-01-05T07:58:24.855Z,99249.88
2023-01-05T08:00:51.966Z,99256.72
2023-01-05T08:03:19.384Z,99250.81
2023-01-05T08:05:47.412Z,99266.22
2023-01-05T08:08:20.565Z,99267.94
2023-01-05T08:10:51.168Z,99273.06
2023-01-05T08:13:36.737Z,99274.78
2023-01-05T08:16:04.155Z,99267.94
2023-01-05T08:18:31.380Z,99281.63
2023-01-05T08:21:03.211Z,99266.28
2023-01-05T08:23:31.693Z,99276.50
2023-01-05T08:26:29.739Z,99283.31
2023-01-05T08:28:56.796Z,99288.47
2023-01-05T08:31:27.166Z,99293.63
2023-01-05T08:34:05.099Z,99295.31
2023-01-05T08:36:33.176Z,99295.31
2023-01-05T08:39:01.889Z,99303.91
2023-01-05T08:41:32.751Z,99290.19
2023-01-05T08:44:02.838Z,99298.75
2023-01-05T08:46:34.119Z,99306.50
2023-01-05T08:49:03.588Z,99310.78
2023-01-05T08:51:31.698Z,99313.38
2023-01-05T08:53:59.068Z,99317.66
2023-01-05T08:56:28.788Z,99313.38
2023-01-05T08:59:01.456Z,99324.53
2023-01-05T09:01:28.527Z,99331.34
2023-01-05T09:03:55.703Z,99328.78
2023-01-05T09:06:23.052Z,99319.28
2023-01-05T09:08:50.163Z,99323.56
2023-01-05T09:11:18.673Z,99322.63
2023-01-05T09:13:48.734Z,99327.75
2023-01-05T09:16:35.492Z,99326.81
2023-01-05T09:19:06.911Z,99315.66
2023-01-05T09:21:34.026Z,99318.16
2023-01-05T09:24:01.261Z,99302.06
2023-01-05T09:26:28.449Z,99313.91
2023-01-05T09:28:55.601Z,99313.06
2023-01-05T09:31:23.526Z,99312.22
2023-01-05T09:33:51.056Z,99310.53
2023-01-05T09:36:19.494Z,99310.56
2023-01-05T09:38:51.476Z,99310.59
2023-01-05T09:41:27.170Z,99297.78
2023-01-05T09:44:00.843Z,99295.25
2023-01-05T09:46:37.232Z,99288.44
2023-01-05T09:49:07.200Z,99291.84
2023-01-05T09:51:34.534Z,99296.94
2023-01-05T09:54:02.750Z,99295.25
2023-01-05T09:59:38.657Z,99284.03
2023-01-05T10:02:27.383Z,99293.41
2023-01-05T10:04:55.556Z,99288.22
2023-01-05T10:07:53.800Z,99281.28
2023-01-05T10:10:38.912Z,99289.72
2023-01-05T10:13:08.770Z,99289.56
2023-01-05T10:15:45.027Z,99288.63
2023-01-05T10:18:18.824Z,99275.75
2023-01-05T10:21:07.629Z,99286.91
2023-01-05T10:23:40.748Z,99287.78
2023-01-05T10:26:20.114Z,99278.44
2023-01-05T10:29:07.401Z,99278.38
2023-01-05T10:31:47.649Z,99271.56
2023-01-05T10:34:24.793Z,99267.28
2023-01-05T10:37:08.922Z,99267.28
2023-01-05T10:40:07.533Z,99266.44
2023-01-05T10:42:45.758Z,99278.50
2023-01-05T10:45:18.106Z,99244.22
2023-01-05T10:47:47.104Z,99273.38
2023-01-05T10:50:30.669Z,99269.13
2023-01-05T10:52:59.182Z,99270.81
2023-01-05T10:55:30.339Z,99275.13
2023-01-05T10:57:57.409Z,99273.44
2023-01-05T11:00:40.868Z,99273.38
2023-01-05T11:03:16.102Z,99281.16
2023-01-05T11:05:46.813Z,99272.59
2023-01-05T11:08:29.443Z,99267.44
2023-01-05T11:11:01.987Z,99272.59
2023-01-05T11:13:32.924Z,99252.94
2023-01-05T11:16:12.817Z,99265.72
2023-01-05T11:18:57.724Z,99270.91
2023-01-05T11:21:26.244Z,99281.16
2023-01-05T11:23:58.722Z,99272.59
2023-01-05T11:26:29.711Z,99265.66
2023-01-05T11:29:09.063Z,99281.09
2023-01-05T11:31:57.657Z,99280.22
2023-01-05T11:34:47.229Z,99284.53
2023-01-05T11:37:25.464Z,99278.47
2023-01-05T11:39:55.804Z,99287.94
2023-01-05T11:42:26.599Z,99283.69
2023-01-05T11:45:07.952Z,99289.72
2023-01-05T11:47:50.785Z,99297.47
2023-01-05T11:50:26.980Z,99293.22
2023-01-05T11:52:56.904Z,99293.28
2023-01-05T11:55:32.002Z,99298.50
2023-01-05T11:58:18.013Z,99295.16
2023-01-05T12:01:06.211Z,99296.94
2023-01-05T12:03:51.735Z,99305.59
2023-01-05T12:06:55.920Z,99305.59
2023-01-05T12:09:23.124Z,99309.84
2023-01-05T12:12:10.735Z,99302.16
2023-01-05T12:14:47.064Z,99300.41
2023-01-05T12:17:15.846Z,99306.44
2023-01-05T12:20:13.600Z,99288.44
2023-01-05T12:22:59.362Z,99309.00
2023-01-05T12:25:39.095Z,99315.84
2023-01-05T12:28:41.339Z,99305.59
2023-01-05T12:34:52.495Z,99303.91
2023-01-05T12:37:25.715Z,99298.78
2023-01-05T12:40:22.019Z,99307.41
2023-01-05T12:43:02.537Z,99314.34
2023-01-05T12:45:54.394Z,99310.97
2023-01-05T12:48:36.838Z,99309.31
2023-01-05T12:51:18.794Z,99316.19
2023-01-05T12:54:08.942Z,99318.78
2023-01-05T12:56:39.092Z,99323.94
2023-01-05T12:59:34.023Z,99318.91
2023-01-05T13:02:22.421Z,99321.41
2023-01-05T13:05:02.878Z,99333.41
2023-01-05T13:07:47.634Z,99336.00
2023-01-05T13:10:45.470Z,99347.13
2023-01-05T13:13:21.752Z,99341.13
2023-01-05T13:16:14.337Z,99345.41
2023-01-05T13:18:49.651Z,99338.59
2023-01-05T13:21:16.935Z,99334.28
2023-01-05T13:23:49.360Z,99341.16
2023-01-05T13:26:19.463Z,99316.44
2023-01-05T13:28:48.753Z,99345.41
2023-01-05T13:31:31.158Z,99348.88
2023-01-05T13:34:26.723Z,99369.50
2023-01-05T13:37:06.285Z,99360.97
2023-01-05T13:40:08.811Z,99392.72
2023-01-05T13:43:09.923Z,99398.75
2023-01-05T13:45:52.837Z,99405.63
2023-01-05T13:48:58.079Z,99449.34
2023-01-05T13:51:55.403Z,99456.25
2023-01-05T13:55:00.300Z,99446.97
2023-01-05T13:57:31.591Z,99489.75
2023-01-05T14:00:10.997Z,99484.72
2023-01-05T14:02:54.651Z,99506.97
2023-01-05T14:05:31.158Z,99494.19
2023-01-05T14:08:01.803Z,99525.84
2023-01-05T14:10:31.744Z,99512.16
2023-01-05T14:12:59.057Z,99536.13
2023-01-05T14:15:42.591Z,99545.50
2023-01-05T14:18:33.188Z,99536.97
2023-01-05T14:21:10.531Z,99549.81
2023-01-05T14:23:37.624Z,99566.91
2023-01-05T14:26:06.995Z,99573.75
2023-01-05T14:28:34.081Z,99587.44
2023-01-05T14:31:19.232Z,99594.25
2023-01-05T14:33:52.840Z,99601.94
2023-01-05T14:36:49.573Z,99613.03
2023-01-05T14:39:19.491Z,99613.03
2023-01-05T14:42:11.325Z,99638.66
2023-01-05T14:44:41.275Z,99643.78
2023-01-05T14:47:10.202Z,99649.78
2023-01-05T14:49:44.171Z,99666.00
2023-01-05T14:52:38.963Z,99679.69
2023-01-05T14:55:21.243Z,99685.66
2023-01-05T14:57:54.164Z,99689.06
2023-01-05T15:00:39.736Z,99696.75
2023-01-05T15:03:21.311Z,99697.59
2023-01-05T15:06:05.756Z,99713.81
2023-01-05T15:09:08.975Z,99725.78
2023-01-05T15:11:45.393Z,99720.63
2023-01-05T15:14:35.336Z,99732.63
2023-01-05T15:17:42.318Z,99747.94
2023-01-05T15:20:27.334Z,99741.97
2023-01-05T15:23:15.228Z,99742.78
2023-01-05T15:26:02.767Z,99751.34
2023-01-05T15:28:48.730Z,99754.75
2023-01-05T15:31:30.708Z,99765.00
2023-01-05T15:34:16.206Z,99770.13
2023-01-05T15:37:07.721Z,99768.41
2023-01-05T15:39:50.325Z,99787.22
2023-01-05T15:42:32.804Z,99784.66
2023-01-05T15:44:59.910Z,99809.44
2023-01-05T15:47:29.727Z,99804.31
2023-01-05T15:50:00.060Z,99813.69
2023-01-05T15:52:40.259Z,99819.66
2023-01-05T15:55:19.375Z,99817.03
2023-01-05T15:58:03.944Z,99834.97
2023-01-05T16:00:36.072Z,99838.38
2023-01-05T16:03:22.253Z,99840.94
2023-01-05T16:05:55.868Z,99846.88
2023-01-05T16:08:23.089Z,99856.28
2023-01-05T16:11:03.696Z,99860.50
2023-01-05T16:13:35.920Z,99867.31
2023-01-05T16:16:11.394Z,99867.31
2023-01-05T16:18:42.579Z,99870.72
2023-01-05T16:21:40.419Z,99878.44
2023-01-05T16:24:33.924Z,99880.94
2023-01-05T16:27:04.415Z,99890.38
2023-01-05T16:29:38.129Z,99895.47
2023-01-05T16:32:25.239Z,99906.59
2023-01-05T16:34:52.813Z,99896.34
2023-01-05T16:37:19.865Z,99906.59
2023-01-05T16:39:47.999Z,99912.56
2023-01-05T16:42:40.271Z,99910.00
2023-01-05T16:45:20.399Z,99920.25
2023-01-05T16:47:47.760Z,99943.31
2023-01-05T16:50:37.722Z,99945.88
2023-01-05T16:53:14.584Z,99951.00
2023-01-05T16:55:42.186Z,99950.94
2023-01-05T16:58:30.911Z,99966.34
2023-01-05T17:01:10.623Z,99966.31
2023-01-05T17:03:37.711Z,99965.44
2023-01-05T17:06:05.957Z,99975.69
2023-01-05T17:08:37.792Z,99990.22
2023-01-05T17:11:12.453Z,99980.78
2023-01-05T17:13:52.453Z,99997.84
2023-01-05T17:16:21.321Z,99997.00
2023-01-05T17:18:50.116Z,100019.25
2023-01-05T17:21:21.195Z,100019.25
2023-01-05T17:23:54.187Z,100017.53
2023-01-05T17:26:25.346Z,100026.06
2023-01-05T17:28:55.489Z,100038.09
2023-01-05T17:31:22.708Z,100029.44
2023-01-05T17:33:49.808Z,100031.19
2023-01-05T17:36:18.390Z,100026.00
2023-01-05T17:38:46.582Z,100039.72
2023-01-05T17:41:16.082Z,100041.44
2023-01-05T17:43:45.229Z,100050.00
2023-01-05T17:46:21.457Z,100049.97
2023-01-05T17:48:49.537Z,100059.41
2023-01-05T17:51:16.685Z,100067.09
2023-01-05T17:53:43.825Z,100077.31
2023-01-05T17:56:11.005Z,100083.31
2023-01-05T17:58:39.306Z,100076.31
2023-01-05T18:01:06.862Z,100090.97
2023-01-05T18:03:33.936Z,100102.06
2023-01-05T18:06:02.059Z,100108.88
2023-01-05T18:08:29.657Z,100118.25
2023-01-05T18:10:56.949Z,100122.50
2023-01-05T18:13:24.813Z,100118.16
2023-01-05T18:15:53.399Z,100142.16
2023-01-05T18:18:21.691Z,100134.38
2023-01-05T18:20:52.193Z,100145.53
2023-01-05T18:23:19.855Z,100165.13
2023-01-05T18:25:46.986Z,100167.69
2023-01-05T18:28:14.114Z,100172.81
2023-01-05T18:30:42.355Z,100177.09
2023-01-05T18:35:43.790Z,100189.91
2023-01-05T18:38:11.291Z,100189.88
2023-01-05T18:40:38.802Z,100194.16
2023-01-05T18:43:05.937Z,100201.81
2023-01-05T18:45:39.127Z,100203.50
2023-01-05T18:48:07.495Z,100218.06
2023-01-05T18:50:34.540Z,100219.72
2023-01-05T18:53:01.664Z,100224.00
2023-01-05T18:55:29.163Z,100213.63
2023-01-05T18:57:56.399Z,100226.53
2023-01-05T19:00:23.542Z,100236.78
2023-01-05T19:02:50.674Z,100234.22
2023-01-05T19:05:17.848Z,100246.13
2023-01-05T19:07:45.133Z,100244.44
2023-01-05T19:10:12.314Z,100259.84
2023-01-05T19:12:39.416Z,100259.84
2023-01-05T19:15:06.941Z,100264.13
2023-01-05T19:17:34.480Z,100270.13
2023-01-05T19:20:01.913Z,100279.50
2023-01-05T19:22:29.104Z,100280.34
2023-01-05T19:24:57.088Z,100283.75
2023-01-05T19:27:24.203Z,100286.31
2023-01-05T19:29:51.456Z,100292.28
2023-01-05T19:32:18.694Z,100294.81
2023-01-05T19:34:46.013Z,100280.19
2023-01-05T19:37:13.202Z,100309.38
2023-01-05T19:39:40.317Z,100309.38
2023-01-05T19:42:07.541Z,100311.97
2023-01-05T19:44:34.923Z,100320.50
2023-01-05T19:47:02.109Z,100316.22
2023-01-05T19:49:29.460Z,100328.19
2023-01-05T19:51:56.873Z,100330.75
2023-01-05T19:54:26.474Z,100335.03
2023-01-05T19:56:55.038Z,100340.16
2023-01-05T19:59:26.472Z,100344.41
2023-01-05T20:01:55.061Z,100353.81
2023-01-05T20:04:22.293Z,100361.44
2023-01-05T20:06:49.327Z,100358.88
2023-01-05T20:09:19.364Z,100363.16
2023-01-05T20:11:49.124Z,100374.31
2023-01-05T20:14:22.180Z,100379.25
2023-01-05T20:16:57.633Z,100398.13
2023-01-05T20:19:29.248Z,100396.31
2023-01-05T20:21:58.100Z,100398.06
2023-01-05T20:24:28.284Z,100398.94
2023-01-05T20:26:58.580Z,100410.88
2023-01-05T20:29:26.743Z,100418.50
2023-01-05T20:32:03.176Z,100429.66
2023-01-05T20:34:32.349Z,100435.59
2023-01-05T20:37:00.589Z,100437.31
2023-01-05T20:39:28.140Z,100438.94
2023-01-05T20:41:55.414Z,100449.19
2023-01-05T20:44:25.020Z,100466.25
2023-01-05T20:46:54.066Z,100462.00
2023-01-05T20:49:22.432Z,100464.53
2023-01-05T20:51:49.961Z,100475.59
2023-01-05T20:54:17.473Z,100468.75
2023-01-05T20:56:46.638Z,100474.75
2023-01-05T20:59:18.017Z,100484.09
2023-01-05T21:01:46.326Z,100459.19
2023-01-05T21:04:14.070Z,100475.50
2023-01-05T21:06:42.337Z,100458.16
2023-01-05T21:09:10.190Z,100487.44
2023-01-05T21:11:38.128Z,100477.94
2023-01-05T21:14:06.988Z,100495.16
2023-01-05T21:16:37.529Z,100495.13
2023-01-05T21:19:06.085Z,100503.66
2023-01-05T21:21:34.713Z,100516.41
2023-01-05T21:24:03.001Z,100524.09
2023-01-05T21:26:30.233Z,100527.50
2023-01-05T21:28:57.360Z,100534.28
2023-01-05T21:31:26.168Z,100542.84
2023-01-05T21:33:54.436Z,100534.31
2023-01-05T21:36:24.664Z,100549.69
2023-01-05T21:39:01.624Z,100559.88
2023-01-05T21:41:49.617Z,100568.47
2023-01-05T21:44:17.517Z,100563.25
2023-01-05T21:46:44.968Z,100559.00
2023-01-05T21:49:13.089Z,100566.66
2023-01-05T21:51:59.491Z,100576.88
2023-01-05T21:54:44.950Z,100578.59
2023-01-05T21:57:12.168Z,100593.09
2023-01-05T21:59:39.846Z,100605.13
2023-01-05T22:02:07.752Z,100592.25
2023-01-05T22:04:35.059Z,100605.91
2023-01-05T22:07:02.728Z,100617.00
2023-01-05T22:09:29.935Z,100618.72
2023-01-05T22:11:57.083Z,100622.13
2023-01-05T22:14:24.286Z,100632.47
2023-01-05T22:16:51.482Z,100634.19
2023-01-05T22:19:18.688Z,100641.88
2023-01-05T22:21:46.023Z,100637.53
2023-01-05T22:24:13.359Z,100647.00
2023-01-05T22:26:40.607Z,100660.63
2023-01-05T22:29:07.781Z,100666.56
2023-01-05T22:31:36.314Z,100669.97
2023-01-05T22:34:04.212Z,100681.03
2023-01-05T22:36:32.383Z,100677.59
2023-01-05T22:39:00.914Z,100686.97
2023-01-05T22:41:30.818Z,100675.84
2023-01-05T22:43:58.722Z,100672.41
2023-01-05T22:46:28.040Z,100689.41
2023-01-05T22:48:56.881Z,100682.53
2023-01-05T22:51:35.669Z,100682.41
2023-01-05T22:54:03.828Z,100686.63
2023-01-05T22:56:32.523Z,100691.84
2023-01-05T22:59:00.479Z,100697.75
2023-01-05T23:01:35.961Z,100710.56
2023-01-05T23:04:05.485Z,100711.41
2023-01-05T23:06:33.421Z,100723.28
2023-01-05T23:09:01.014Z,100712.91
2023-01-05T23:11:30.735Z,100726.69
2023-01-05T23:13:59.577Z,100727.56
2023-01-05T23:16:27.802Z,100733.53
2023-01-05T23:18:55.482Z,100721.50
2023-01-05T23:21:24.645Z,100725.00
2023-01-05T23:23:53.187Z,100728.41
2023-01-05T23:26:21.079Z,100736.94
2023-01-05T23:28:48.981Z,100731.72
2023-01-05T23:31:17.628Z,100740.22
2023-01-05T23:33:45.752Z,100750.47
2023-01-05T23:36:15.806Z,100748.66
2023-01-05T23:38:43.649Z,100745.91
2023-01-05T23:41:13.118Z,100751.81
2023-01-05T23:43:41.683Z,100743.97
2023-01-05T23:46:11.914Z,100744.72
2023-01-05T23:48:39.301Z,100747.13
2023-01-05T23:51:07.998Z,100743.56
2023-01-05T23:53:35.009Z,100759.91
2023-01-05T23:56:29.951Z,100766.75
2023-01-05T23:58:58.380Z,100761.63
